createdAt,value
2023-05-19T00:00:30.860Z,31.65
2023-05-19T00:03:08.361Z,30.12
2023-05-19T00:05:44.721Z,32.00
2023-05-19T00:08:20.191Z,30.60
2023-05-19T00:10:53.171Z,30.12
2023-05-19T00:13:28.226Z,34.67
2023-05-19T00:15:59.663Z,31.20
2023-05-19T00:18:32.702Z,32.70
2023-05-19T00:21:04.502Z,31.73
2023-05-19T00:23:54.634Z,32.90
2023-05-19T00:26:28.620Z,33.23
2023-05-19T00:29:01.145Z,29.65
2023-05-19T00:31:32.928Z,29.27
2023-05-19T00:34:06.895Z,32.55
2023-05-19T00:36:40.411Z,35.03
2023-05-19T00:39:14.265Z,33.80
2023-05-19T00:41:46.367Z,31.60
2023-05-19T00:44:17.885Z,41.92
2023-05-19T00:46:51.991Z,38.02
2023-05-19T00:49:24.565Z,34.13
2023-05-19T00:51:57.295Z,36.25
2023-05-19T00:54:31.248Z,33.08
2023-05-19T00:57:05.753Z,31.00
2023-05-19T00:59:41.727Z,29.42
2023-05-19T01:02:12.704Z,34.25
2023-05-19T01:04:46.689Z,34.30
2023-05-19T01:07:18.279Z,29.77
2023-05-19T01:09:50.297Z,30.40
2023-05-19T01:12:23.579Z,33.50
2023-05-19T01:14:54.562Z,35.73
2023-05-19T01:17:47.847Z,35.05
2023-05-19T01:20:23.898Z,31.65
2023-05-19T01:23:04.870Z,35.50
2023-05-19T01:26:10.803Z,35.30
2023-05-19T01:29:03.220Z,32.70
2023-05-19T01:34:27.792Z,40.03
2023-05-19T01:37:10.380Z,38.75
2023-05-19T01:39:42.483Z,37.65
2023-05-19T01:42:16.793Z,34.40
2023-05-19T01:44:55.179Z,30.08
2023-05-19T01:47:35.235Z,31.93
2023-05-19T01:50:02.297Z,36.13
2023-05-19T01:52:34.157Z,29.50
2023-05-19T01:55:06.969Z,28.32
2023-05-19T01:58:09.635Z,31.10
2023-05-19T02:01:06.132Z,30.45
2023-05-19T02:06:52.545Z,32.48
2023-05-19T02:12:27.286Z,26.85
2023-05-19T02:15:19.882Z,29.57
2023-05-19T02:17:55.696Z,31.12
2023-05-19T02:20:30.346Z,27.87
2023-05-19T02:23:02.984Z,30.68
2023-05-19T02:25:35.011Z,30.85
2023-05-19T02:28:09.636Z,29.87
2023-05-19T02:30:42.447Z,27.10
2023-05-19T02:33:14.245Z,29.35
2023-05-19T02:35:46.912Z,28.38
2023-05-19T02:38:21.067Z,25.65
2023-05-19T02:40:56.238Z,25.35
2023-05-19T02:43:30.675Z,30.37
2023-05-19T02:46:05.850Z,28.55
2023-05-19T02:48:40.023Z,29.67
2023-05-19T02:51:16.440Z,27.13
2023-05-19T02:56:20.163Z,29.63
2023-05-19T02:58:51.301Z,39.38
2023-05-19T03:01:25.950Z,31.33
2023-05-19T03:03:57.845Z,30.80
2023-05-19T03:06:36.033Z,25.82
2023-05-19T03:09:08.129Z,27.67
2023-05-19T03:11:42.855Z,33.92
2023-05-19T03:14:15.056Z,32.65
2023-05-19T03:16:47.339Z,23.92
2023-05-19T03:19:21.214Z,28.23
2023-05-19T03:21:55.040Z,27.30
2023-05-19T03:24:28.231Z,27.60
2023-05-19T03:27:01.058Z,29.95
2023-05-19T03:29:34.985Z,26.42
2023-05-19T03:32:06.309Z,26.75
2023-05-19T03:34:39.484Z,28.02
2023-05-19T03:37:13.422Z,27.37
2023-05-19T03:39:47.466Z,24.20
2023-05-19T03:42:21.831Z,28.15
2023-05-19T03:44:55.520Z,27.07
2023-05-19T03:47:29.773Z,27.48
2023-05-19T03:50:02.861Z,31.15
2023-05-19T03:52:40.336Z,23.32
2023-05-19T03:55:14.862Z,24.45
2023-05-19T03:57:49.387Z,25.97
2023-05-19T04:00:22.423Z,28.65
2023-05-19T04:02:53.297Z,26.40
2023-05-19T04:05:26.129Z,30.15
2023-05-19T04:07:58.772Z,30.50
2023-05-19T04:10:31.615Z,26.70
2023-05-19T04:13:10.351Z,23.07
2023-05-19T04:15:44.327Z,27.00
2023-05-19T04:18:15.295Z,23.38
2023-05-19T04:20:48.496Z,20.90
2023-05-19T04:23:19.259Z,26.52
2023-05-19T04:25:52.101Z,27.32
2023-05-19T04:28:24.782Z,24.27
2023-05-19T04:30:58.915Z,18.73
2023-05-19T04:33:31.328Z,26.27
2023-05-19T04:36:06.285Z,23.92
2023-05-19T04:38:39.003Z,19.82
2023-05-19T04:41:16.098Z,23.77
2023-05-19T04:43:48.677Z,24.98
2023-05-19T04:46:22.561Z,26.90
2023-05-19T04:48:56.050Z,22.58
2023-05-19T04:51:31.376Z,23.62
2023-05-19T04:54:02.566Z,29.47
2023-05-19T04:56:33.544Z,25.85
2023-05-19T04:59:07.130Z,22.50
2023-05-19T05:01:40.055Z,24.25
2023-05-19T05:04:12.306Z,24.05
2023-05-19T05:06:47.744Z,23.25
2023-05-19T05:09:21.125Z,20.10
2023-05-19T05:11:52.700Z,23.30
2023-05-19T05:14:25.897Z,25.05
2023-05-19T05:16:57.150Z,26.77
2023-05-19T05:19:30.149Z,21.17
2023-05-19T05:22:01.530Z,25.25
2023-05-19T05:24:35.878Z,26.80
2023-05-19T05:27:09.215Z,21.12
2023-05-19T05:29:41.046Z,22.90
2023-05-19T05:32:13.753Z,25.02
2023-05-19T05:34:47.753Z,26.57
2023-05-19T05:37:18.659Z,24.52
2023-05-19T05:39:50.775Z,22.73
2023-05-19T05:42:29.547Z,22.00
2023-05-19T05:44:59.341Z,25.77
2023-05-19T05:47:35.881Z,22.45
2023-05-19T05:50:08.930Z,24.20
2023-05-19T05:52:42.214Z,26.07
2023-05-19T05:55:16.972Z,26.02
2023-05-19T05:57:52.843Z,26.37
2023-05-19T06:00:26.624Z,35.73
2023-05-19T06:02:59.992Z,25.30
2023-05-19T06:05:33.832Z,28.15
2023-05-19T06:08:07.025Z,26.10
2023-05-19T06:10:40.579Z,26.27
2023-05-19T06:13:13.158Z,22.62
2023-05-19T06:15:46.852Z,24.95
2023-05-19T06:18:25.030Z,29.87
2023-05-19T06:20:57.287Z,28.05
2023-05-19T06:23:35.647Z,29.30
2023-05-19T06:26:11.842Z,23.80
2023-05-19T06:28:44.368Z,23.32
2023-05-19T06:31:17.130Z,25.80
2023-05-19T06:33:48.904Z,34.67
2023-05-19T06:36:23.156Z,24.25
2023-05-19T06:39:02.498Z,29.07
2023-05-19T06:41:35.198Z,21.73
2023-05-19T06:44:09.037Z,26.68
2023-05-19T06:46:41.878Z,25.25
2023-05-19T06:49:15.425Z,24.30
2023-05-19T06:51:52.157Z,26.33
2023-05-19T06:54:24.644Z,21.30
2023-05-19T06:56:55.813Z,22.00
2023-05-19T06:59:28.911Z,25.02
2023-05-19T07:02:03.202Z,23.30
2023-05-19T07:04:36.516Z,24.02
2023-05-19T07:07:10.380Z,22.35
2023-05-19T07:09:45.539Z,26.12
2023-05-19T07:12:22.816Z,20.70
2023-05-19T07:14:53.718Z,22.07
2023-05-19T07:17:26.802Z,25.85
2023-05-19T07:19:59.369Z,24.37
2023-05-19T07:22:34.568Z,21.73
2023-05-19T07:25:08.482Z,22.20
2023-05-19T07:27:41.474Z,21.62
2023-05-19T07:30:13.440Z,22.20
2023-05-19T07:32:46.902Z,22.58
2023-05-19T07:35:20.087Z,22.87
2023-05-19T07:37:55.958Z,21.73
2023-05-19T07:40:30.742Z,27.65
2023-05-19T07:43:03.695Z,21.25
2023-05-19T07:45:34.685Z,28.75
2023-05-19T07:48:09.998Z,26.60
2023-05-19T07:50:42.182Z,26.67
2023-05-19T07:53:17.786Z,27.87
2023-05-19T07:55:51.199Z,21.85
2023-05-19T07:58:22.519Z,21.40
2023-05-19T08:00:58.474Z,19.35
2023-05-19T08:03:29.616Z,28.27
2023-05-19T08:06:02.331Z,19.20
2023-05-19T08:08:35.173Z,21.37
2023-05-19T08:11:07.797Z,22.73
2023-05-19T08:13:41.851Z,22.05
2023-05-19T08:16:12.801Z,22.07
2023-05-19T08:18:44.419Z,33.42
2023-05-19T08:21:17.468Z,23.40
2023-05-19T08:23:49.503Z,21.95
2023-05-19T08:26:20.619Z,27.30
2023-05-19T08:28:51.443Z,25.72
2023-05-19T08:31:23.673Z,18.75
2023-05-19T08:33:54.736Z,22.15
2023-05-19T08:36:27.649Z,22.48
2023-05-19T08:39:00.393Z,20.85
2023-05-19T08:41:31.420Z,21.02
2023-05-19T08:44:02.570Z,23.77
2023-05-19T08:46:33.877Z,24.72
2023-05-19T08:49:18.062Z,23.25
2023-05-19T08:52:07.237Z,20.32
2023-05-19T08:54:41.275Z,25.72
2023-05-19T08:57:12.554Z,22.15
2023-05-19T08:59:45.479Z,24.65
2023-05-19T09:02:17.403Z,20.70
2023-05-19T09:04:49.716Z,21.50
2023-05-19T09:07:22.218Z,20.17
2023-05-19T09:09:53.363Z,19.75
2023-05-19T09:12:24.799Z,20.77
2023-05-19T09:14:56.545Z,28.30
2023-05-19T09:17:27.921Z,24.15
2023-05-19T09:19:59.181Z,23.52
2023-05-19T09:22:31.595Z,23.80
2023-05-19T09:25:05.798Z,22.25
2023-05-19T09:27:37.224Z,21.37
2023-05-19T09:30:11.958Z,21.75
2023-05-19T09:32:43.853Z,25.90
2023-05-19T09:35:16.790Z,23.80
2023-05-19T09:37:47.761Z,21.97
2023-05-19T09:40:18.975Z,25.52
2023-05-19T09:42:50.222Z,21.87
2023-05-19T09:45:25.904Z,26.60
2023-05-19T09:50:54.909Z,27.67
2023-05-19T09:53:29.869Z,24.37
2023-05-19T09:56:00.816Z,33.63
2023-05-19T09:58:39.240Z,25.55
2023-05-19T10:01:21.320Z,20.62
2023-05-19T10:03:52.441Z,24.70
2023-05-19T10:06:26.674Z,24.05
2023-05-19T10:08:58.703Z,23.25
2023-05-19T10:11:35.463Z,24.35
2023-05-19T10:14:12.522Z,21.37
2023-05-19T10:16:43.051Z,25.80
2023-05-19T10:19:15.336Z,23.70
2023-05-19T10:21:46.843Z,26.23
2023-05-19T10:24:19.777Z,20.37
2023-05-19T10:27:02.745Z,21.48
2023-05-19T10:29:36.591Z,23.95
2023-05-19T10:32:15.677Z,25.62
2023-05-19T10:35:24.164Z,28.02
2023-05-19T10:38:03.307Z,23.30
2023-05-19T10:40:53.360Z,29.20
2023-05-19T10:43:47.042Z,29.52
2023-05-19T10:46:18.160Z,30.80
2023-05-19T10:48:54.000Z,28.75
2023-05-19T10:51:36.056Z,33.45
2023-05-19T10:54:26.594Z,34.48
2023-05-19T10:56:58.985Z,25.90
2023-05-19T10:59:38.958Z,24.23
2023-05-19T11:02:10.882Z,23.42
2023-05-19T11:04:59.695Z,30.75
2023-05-19T11:07:31.193Z,29.20
2023-05-19T11:10:02.688Z,26.55
2023-05-19T11:12:38.954Z,27.87
2023-05-19T11:15:13.289Z,33.40
2023-05-19T11:17:47.178Z,31.60
2023-05-19T11:20:31.664Z,28.00
2023-05-19T11:23:15.065Z,23.42
2023-05-19T11:25:49.176Z,26.17
2023-05-19T11:28:24.160Z,26.68
2023-05-19T11:30:56.590Z,25.82
2023-05-19T11:33:31.445Z,27.90
2023-05-19T11:36:02.638Z,28.40
2023-05-19T11:38:35.370Z,27.85
2023-05-19T11:41:07.077Z,28.32
2023-05-19T11:43:38.065Z,27.98
2023-05-19T11:46:09.027Z,28.83
2023-05-19T11:48:40.311Z,31.68
2023-05-19T11:51:11.445Z,29.87
2023-05-19T11:53:42.462Z,31.95
2023-05-19T11:56:16.262Z,32.85
2023-05-19T11:58:47.291Z,35.05
2023-05-19T12:01:18.429Z,35.58
2023-05-19T12:03:49.521Z,31.85
2023-05-19T12:06:20.684Z,32.75
2023-05-19T12:08:57.062Z,32.67
2023-05-19T12:11:29.243Z,35.38
2023-05-19T12:14:03.619Z,36.53
2023-05-19T12:16:38.453Z,42.43
2023-05-19T12:19:33.366Z,38.75
2023-05-19T12:30:58.448Z,48.78
2023-05-19T12:31:31.715Z,46.55
2023-05-19T12:33:29.763Z,52.80
2023-05-19T12:36:00.871Z,45.78
2023-05-19T12:38:31.897Z,46.65
2023-05-19T12:41:02.844Z,50.95
2023-05-19T12:43:34.582Z,47.80
2023-05-19T12:46:13.459Z,50.28
2023-05-19T12:48:47.825Z,51.77
2023-05-19T12:51:23.096Z,51.58
2023-05-19T12:53:54.355Z,48.03
2023-05-19T12:56:29.372Z,51.80
2023-05-19T12:59:01.566Z,48.15
2023-05-19T13:01:32.806Z,41.80
2023-05-19T13:04:06.087Z,45.92
2023-05-19T13:06:36.069Z,49.08
2023-05-19T13:09:08.889Z,44.70
2023-05-19T13:11:39.891Z,43.60
2023-05-19T13:14:12.174Z,42.70
2023-05-19T13:16:43.883Z,45.50
2023-05-19T13:19:25.109Z,41.45
2023-05-19T13:21:52.636Z,41.73
2023-05-19T13:24:23.558Z,40.60
2023-05-19T13:26:55.856Z,38.95
2023-05-19T13:29:26.630Z,38.92
2023-05-19T13:32:00.518Z,31.10
2023-05-19T13:34:30.043Z,31.35
2023-05-19T13:37:07.649Z,35.73
2023-05-19T13:39:37.105Z,37.70
2023-05-19T13:42:08.424Z,33.38
2023-05-19T13:44:39.535Z,33.33
2023-05-19T13:47:10.787Z,33.28
2023-05-19T13:49:44.803Z,39.00
2023-05-19T13:52:16.384Z,31.05
2023-05-19T13:55:04.051Z,28.47
2023-05-19T13:57:32.305Z,31.60
2023-05-19T14:00:04.250Z,29.10
2023-05-19T14:02:35.751Z,28.67
2023-05-19T14:05:08.308Z,30.72
2023-05-19T14:07:39.483Z,31.87
2023-05-19T14:10:11.417Z,28.32
2023-05-19T14:13:04.945Z,31.15
2023-05-19T14:15:17.963Z,28.60
2023-05-19T14:17:50.161Z,33.60
2023-05-19T14:20:21.225Z,32.48
2023-05-19T14:22:53.570Z,47.05
2023-05-19T14:25:28.478Z,32.40
2023-05-19T14:27:59.343Z,34.45
2023-05-19T14:30:30.492Z,32.85
2023-05-19T14:33:02.822Z,27.85
2023-05-19T14:35:33.757Z,29.50
2023-05-19T14:38:04.634Z,27.55
2023-05-19T14:40:35.650Z,25.37
2023-05-19T14:43:06.671Z,25.02
2023-05-19T14:45:43.204Z,30.35
2023-05-19T14:48:18.647Z,29.20
2023-05-19T14:50:51.072Z,30.33
2023-05-19T14:53:22.671Z,31.15
2023-05-19T14:55:53.671Z,30.72
2023-05-19T14:58:29.006Z,28.38
2023-05-19T15:00:59.522Z,34.83
2023-05-19T15:03:33.462Z,27.77
2023-05-19T15:06:04.793Z,29.87
2023-05-19T15:08:35.573Z,30.05
2023-05-19T15:11:06.573Z,27.70
2023-05-19T15:13:39.973Z,29.85
2023-05-19T15:16:16.786Z,31.68
2023-05-19T15:18:43.767Z,27.62
2023-05-19T15:21:14.723Z,28.40
2023-05-19T15:23:45.860Z,34.63
2023-05-19T15:26:16.721Z,32.08
2023-05-19T15:28:47.747Z,28.83
2023-05-19T15:31:30.163Z,29.18
2023-05-19T15:34:01.271Z,32.58
2023-05-19T15:36:32.784Z,28.62
2023-05-19T15:39:04.859Z,33.90
2023-05-19T15:41:36.127Z,30.50
2023-05-19T15:44:07.920Z,35.73
2023-05-19T15:46:50.707Z,32.85
2023-05-19T15:49:21.796Z,35.83
2023-05-19T15:51:52.739Z,27.73
2023-05-19T15:54:26.664Z,31.37
2023-05-19T15:57:00.274Z,30.97
2023-05-19T15:59:31.244Z,29.70
2023-05-19T16:02:02.412Z,32.83
2023-05-19T16:04:33.246Z,31.23
2023-05-19T16:07:04.239Z,35.13
2023-05-19T16:09:35.132Z,33.92
2023-05-19T16:12:06.494Z,29.87
2023-05-19T16:14:38.805Z,36.00
2023-05-19T16:17:11.075Z,33.05
2023-05-19T16:19:42.008Z,31.80
2023-05-19T16:22:12.835Z,33.00
2023-05-19T16:24:43.693Z,39.40
2023-05-19T16:27:16.677Z,29.50
2023-05-19T16:29:46.721Z,37.73
2023-05-19T16:32:17.688Z,27.60
2023-05-19T16:34:48.828Z,30.02
2023-05-19T16:37:20.027Z,36.73
2023-05-19T16:39:50.966Z,36.28
2023-05-19T16:42:22.008Z,33.48
2023-05-19T16:44:56.272Z,36.88
2023-05-19T16:47:33.919Z,30.80
2023-05-19T16:50:05.068Z,33.88
2023-05-19T16:52:40.113Z,37.33
2023-05-19T16:55:12.418Z,34.33
2023-05-19T16:57:43.783Z,30.82
2023-05-19T17:00:15.610Z,35.33
2023-05-19T17:02:46.533Z,41.25
2023-05-19T17:05:17.551Z,37.42
2023-05-19T17:07:48.448Z,34.05
2023-05-19T17:10:22.166Z,34.08
2023-05-19T17:12:53.087Z,41.45
2023-05-19T17:15:23.872Z,33.58
2023-05-19T17:17:54.884Z,36.15
2023-05-19T17:20:25.810Z,33.13
2023-05-19T17:22:56.849Z,36.28
2023-05-19T17:25:27.734Z,35.15
2023-05-19T17:27:58.525Z,31.57
2023-05-19T17:30:29.448Z,34.75
2023-05-19T17:33:00.760Z,34.10
2023-05-19T17:35:31.797Z,34.80
2023-05-19T17:38:02.674Z,32.70
2023-05-19T17:40:33.733Z,34.05
2023-05-19T17:43:07.535Z,39.30
2023-05-19T17:45:38.396Z,34.83
2023-05-19T17:48:10.111Z,34.38
2023-05-19T17:50:41.013Z,34.98
2023-05-19T17:53:12.296Z,38.83
2023-05-19T17:55:43.677Z,33.80
2023-05-19T17:58:14.924Z,37.65
2023-05-19T18:00:46.070Z,35.35
2023-05-19T18:03:17.893Z,38.90
2023-05-19T18:05:49.464Z,32.67
2023-05-19T18:08:26.868Z,35.65
2023-05-19T18:10:54.242Z,39.38
2023-05-19T18:13:25.242Z,36.90
2023-05-19T18:15:58.963Z,46.23
2023-05-19T18:18:30.103Z,35.50
2023-05-19T18:21:00.899Z,33.30
2023-05-19T18:23:32.193Z,38.65
2023-05-19T18:26:03.353Z,40.92
2023-05-19T18:28:34.106Z,36.05
2023-05-19T18:31:06.534Z,34.25
2023-05-19T18:33:40.062Z,33.40
2023-05-19T18:36:11.332Z,31.42
2023-05-19T18:38:43.365Z,35.38
2023-05-19T18:41:21.228Z,33.45
2023-05-19T18:43:52.299Z,40.12
2023-05-19T18:46:23.541Z,35.23
2023-05-19T18:48:54.398Z,32.55
2023-05-19T18:51:25.320Z,30.05
2023-05-19T18:53:56.362Z,35.43
2023-05-19T18:56:28.610Z,31.15
2023-05-19T18:58:59.697Z,34.43
2023-05-19T19:01:30.531Z,34.27
2023-05-19T19:04:02.109Z,36.30
2023-05-19T19:06:33.210Z,36.03
2023-05-19T19:09:04.753Z,32.75
2023-05-19T19:14:24.496Z,34.75
2023-05-19T19:16:55.377Z,32.42
2023-05-19T19:19:26.486Z,33.30
2023-05-19T19:21:57.605Z,34.63
2023-05-19T19:24:29.579Z,30.43
2023-05-19T19:27:00.598Z,33.30
2023-05-19T19:29:31.736Z,33.98
2023-05-19T19:32:03.066Z,35.00
2023-05-19T19:34:33.965Z,33.05
2023-05-19T19:37:04.874Z,32.30
2023-05-19T19:39:35.782Z,33.83
2023-05-19T19:42:07.003Z,34.75
2023-05-19T19:44:37.833Z,33.60
2023-05-19T19:47:08.953Z,35.05
2023-05-19T19:49:40.061Z,35.52
2023-05-19T19:52:11.004Z,31.25
2023-05-19T19:54:42.041Z,38.75
2023-05-19T19:57:13.186Z,36.77
2023-05-19T20:02:32.987Z,35.03
2023-05-19T20:05:05.765Z,38.67
2023-05-19T20:07:36.657Z,30.72
2023-05-19T20:10:08.980Z,38.83
2023-05-19T20:12:39.816Z,37.60
2023-05-19T20:15:12.092Z,33.95
2023-05-19T20:17:43.178Z,40.58
2023-05-19T20:20:15.093Z,37.60
2023-05-19T20:22:47.066Z,35.20
2023-05-19T20:25:18.300Z,35.95
2023-05-19T20:27:49.193Z,33.38
2023-05-19T20:30:20.300Z,35.90
2023-05-19T20:32:55.565Z,33.15
2023-05-19T20:35:26.855Z,36.90
2023-05-19T20:37:57.780Z,29.67
2023-05-19T20:40:29.247Z,38.17
2023-05-19T20:43:00.052Z,32.40
2023-05-19T20:45:30.856Z,38.00
2023-05-19T20:48:01.845Z,32.10
2023-05-19T20:50:33.266Z,36.45
2023-05-19T20:53:04.270Z,34.92
2023-05-19T20:55:36.621Z,36.88
2023-05-19T20:58:07.558Z,46.20
2023-05-19T21:00:38.494Z,32.95
2023-05-19T21:03:09.309Z,35.68
2023-05-19T21:05:40.142Z,34.70
2023-05-19T21:08:12.699Z,33.83
2023-05-19T21:10:43.936Z,36.00
2023-05-19T21:13:19.336Z,37.95
2023-05-19T21:15:50.339Z,32.83
2023-05-19T21:18:21.538Z,35.03
2023-05-19T21:20:52.331Z,36.15
2023-05-19T21:23:23.112Z,31.10
2023-05-19T21:25:53.905Z,35.40
2023-05-19T21:28:24.927Z,37.42
2023-05-19T21:30:55.747Z,35.17
2023-05-19T21:33:26.966Z,34.40
2023-05-19T21:35:59.099Z,31.87
2023-05-19T21:38:30.408Z,39.13
2023-05-19T21:41:01.337Z,36.80
2023-05-19T21:43:32.350Z,36.28
2023-05-19T21:46:03.167Z,35.28
2023-05-19T21:48:34.016Z,36.48
2023-05-19T21:51:05.189Z,36.30
2023-05-19T21:53:36.308Z,38.65
2023-05-19T21:56:07.680Z,33.40
2023-05-19T22:01:28.833Z,34.18
2023-05-19T22:03:59.951Z,33.33
2023-05-19T22:06:30.975Z,36.98
2023-05-19T22:09:03.394Z,36.42
2023-05-19T22:11:39.485Z,41.50
2023-05-19T22:14:10.365Z,36.50
2023-05-19T22:16:41.532Z,35.35
2023-05-19T22:19:13.435Z,45.30
2023-05-19T22:21:44.424Z,35.95
2023-05-19T22:24:15.236Z,37.08
2023-05-19T22:26:47.709Z,40.25
2023-05-19T22:29:19.724Z,43.83
2023-05-19T22:31:50.501Z,39.35
2023-05-19T22:34:21.408Z,35.58
2023-05-19T22:36:52.499Z,36.60
2023-05-19T22:39:23.373Z,41.40
2023-05-19T22:41:54.270Z,39.63
2023-05-19T22:44:25.105Z,42.80
2023-05-19T22:46:56.109Z,36.38
2023-05-19T22:49:28.526Z,41.65
2023-05-19T22:51:59.316Z,42.08
2023-05-19T22:54:33.159Z,44.13
2023-05-19T22:57:04.730Z,40.15
2023-05-19T22:59:40.115Z,40.60
2023-05-19T23:02:11.324Z,39.88
2023-05-19T23:04:42.458Z,44.65
2023-05-19T23:07:13.596Z,44.20
2023-05-19T23:09:44.510Z,43.15
2023-05-19T23:12:15.884Z,45.98
2023-05-19T23:14:46.927Z,50.83
2023-05-19T23:17:18.111Z,46.55
2023-05-19T23:19:49.232Z,39.40
2023-05-19T23:22:20.286Z,48.13
2023-05-19T23:24:51.346Z,45.25
2023-05-19T23:27:22.453Z,45.33
2023-05-19T23:29:58.117Z,41.83
2023-05-19T23:32:28.254Z,44.67
2023-05-19T23:34:59.216Z,48.87
2023-05-19T23:37:30.497Z,45.48
2023-05-19T23:40:01.413Z,45.23
2023-05-19T23:42:32.689Z,44.50
2023-05-19T23:45:05.538Z,40.10
2023-05-19T23:47:35.987Z,47.88
2023-05-19T23:50:07.491Z,49.20
2023-05-19T23:52:38.453Z,45.98
2023-05-19T23:55:11.051Z,48.98
2023-05-19T23:57:42.220Z,45.38
